»·PEaware :: SWA4759 KSAN-KLAS

SWA4759 :: KSAN-KLAS

FLIGHT INFORMATION

Flight Status: Arrived
Operator:
Southwest Airlines
More flights by this operator :: More flights under this callsign
Pilot: Aundrey S. (17120)
Aircraft: BOEING 737-800
(B738)
More flights by this aircraft type
Origin: KSAN San Diego Intl-Lindbergh
United States
Destination: KLAS McCarran Intl
United States
More flights between these airports :: More routes between these airports
Route: PADRZ2 CHKNN SEBBY YELAH MISEN KEPEC6
File this flight plan on PilotEdge
Remarks:
Altitude:
(Current/Filed)
29,000ft
Speed:
(Current/Filed)
450kts
Departed: 13-May-18 01:29 PM
Arrived: 13-May-18 02:27 PM
Distance/Time
Traveled:
225nm/0:58
Distance/Time
To Go:
Arrived

Flight Plot

Page will automatically refresh every two minutes.

Flight plan parsing failed; only flown route is shown


Map Options




Map Legend


Flown Route
Filed Route
Departure Airport
Arrival Airport
Navaid (VOR, NDB)
Fix

Horizontal Profiles

Position Reports

Time Latitude Longitude Heading Altitude Ground
Speed
13-May-18 12:59 32.733219 -117.196887 134 18ft 0kts
13-May-18 13:00 32.733219 -117.196887 134 18ft 0kts
13-May-18 13:01 32.733219 -117.196887 134 18ft 0kts
13-May-18 13:02 32.733219 -117.196887 134 18ft 0kts
13-May-18 13:03 32.733219 -117.196887 134 18ft 0kts
13-May-18 13:04 32.733219 -117.196887 134 18ft 0kts
13-May-18 13:05 32.733219 -117.196887 134 18ft 0kts
13-May-18 13:06 32.733219 -117.196887 134 18ft 0kts
13-May-18 13:07 32.733219 -117.196887 134 18ft 0kts
13-May-18 13:08 32.733219 -117.196887 134 18ft 0kts
13-May-18 13:09 32.733219 -117.196887 134 18ft 0kts
13-May-18 13:10 32.733219 -117.196887 134 18ft 0kts
13-May-18 13:11 32.733219 -117.196887 134 18ft 0kts
13-May-18 13:12 32.733219 -117.196887 134 18ft 0kts
13-May-18 13:13 32.733219 -117.196887 134 18ft 0kts
13-May-18 13:14 32.733219 -117.196887 134 18ft 0kts
13-May-18 13:15 32.733250 -117.196924 134 17ft 5kts
13-May-18 13:16 32.733552 -117.197347 111 17ft 0kts
13-May-18 13:17 32.733552 -117.197347 111 17ft 0kts
13-May-18 13:18 32.733552 -117.197347 111 17ft 0kts
13-May-18 13:19 32.733552 -117.197347 111 17ft 0kts
13-May-18 13:20 32.733552 -117.197347 111 17ft 0kts
13-May-18 13:21 32.733552 -117.197347 111 17ft 0kts
13-May-18 13:22 32.733552 -117.197347 111 17ft 0kts
13-May-18 13:23 32.733749 -117.194721 106 21ft 19kts
13-May-18 13:24 32.731876 -117.187003 106 18ft 23kts
13-May-18 13:25 32.730196 -117.180089 106 18ft 21kts
13-May-18 13:26 32.729513 -117.176732 75 22ft 0kts
13-May-18 13:27 32.729513 -117.176732 75 22ft 0kts
13-May-18 13:28 32.729610 -117.176362 71 23ft 6kts
13-May-18 13:29 32.734326 -117.192801 286 109ft 168kts
13-May-18 13:30 32.758694 -117.250825 304 2298ft 242kts
13-May-18 13:31 32.800123 -117.319435 305 5861ft 265kts
13-May-18 13:32 32.845197 -117.389218 307 9568ft 272kts
13-May-18 13:33 32.894050 -117.465033 308 12400ft 305kts
13-May-18 13:34 32.946248 -117.546095 307 14914ft 314kts
13-May-18 13:35 33.000087 -117.630228 306 17422ft 322kts
13-May-18 13:36 33.056663 -117.718629 306 20007ft 347kts
13-May-18 13:37 33.127619 -117.794598 317 22741ft 360kts
13-May-18 13:38 33.204577 -117.872591 317 25382ft 371kts
13-May-18 13:39 33.284701 -117.950836 316 28104ft 371kts
13-May-18 13:40 33.365571 -118.030189 316 29115ft 398kts
13-May-18 13:41 33.454403 -118.117247 316 29075ft 419kts
13-May-18 13:42 33.544150 -118.205064 317 29073ft 419kts
13-May-18 13:43 33.645201 -118.274362 328 29094ft 427kts
13-May-18 13:44 33.759294 -118.310351 9 29113ft 463kts
13-May-18 13:45 33.840366 -118.188276 66 29109ft 508kts
13-May-18 13:46 33.929801 -118.066520 50 29076ft 501kts
13-May-18 13:47 33.998584 -117.922810 32 29109ft 490kts
13-May-18 13:48 34.073961 -117.788467 62 29123ft 508kts
13-May-18 13:49 34.160536 -117.665395 58 29135ft 504kts
13-May-18 13:50 34.223396 -117.550353 44 29043ft 496kts
13-May-18 13:51 34.304344 -117.414913 49 29028ft 497kts
13-May-18 13:52 34.388544 -117.286299 31 28993ft 481kts
13-May-18 13:53 34.495609 -117.198267 52 29049ft 497kts
13-May-18 13:54 34.574228 -117.060987 49 29020ft 495kts
13-May-18 13:55 34.653765 -116.926387 48 28968ft 490kts
13-May-18 13:56 34.738539 -116.797908 34 28954ft 478kts
13-May-18 13:57 34.826799 -116.676270 47 28206ft 478kts
13-May-18 13:58 34.912895 -116.558049 35 26630ft 465kts
13-May-18 13:59 35.012610 -116.458191 31 25059ft 463kts
13-May-18 14:00 35.116044 -116.371676 20 24000ft 457kts
13-May-18 14:01 35.211503 -116.272277 55 22770ft 468kts
13-May-18 14:02 35.291280 -116.153816 45 20813ft 431kts
13-May-18 14:03 35.369830 -116.046733 43 18910ft 419kts
13-May-18 14:04 35.446620 -115.942980 44 17185ft 407kts
13-May-18 14:05 35.521460 -115.842315 44 15556ft 394kts
13-May-18 14:06 35.594610 -115.744805 44 13944ft 382kts
13-May-18 14:07 35.669679 -115.656101 30 13005ft 369kts
13-May-18 14:08 35.746951 -115.580951 35 13004ft 348kts
13-May-18 14:09 35.834134 -115.537979 2 12977ft 341kts
13-May-18 14:10 35.924920 -115.550260 346 12967ft 309kts
13-May-18 14:11 35.991116 -115.511259 73 13017ft 322kts
13-May-18 14:12 36.019728 -115.410984 65 12977ft 296kts
13-May-18 14:13 36.026675 -115.313598 92 12974ft 294kts
13-May-18 14:14 36.019269 -115.212410 92 11254ft 296kts
13-May-18 14:15 36.012528 -115.113713 94 8818ft 284kts
13-May-18 14:16 36.006718 -115.021108 95 7966ft 254kts
13-May-18 14:17 36.001619 -114.936692 95 7981ft 241kts
13-May-18 14:18 35.996769 -114.855138 97 8002ft 231kts
13-May-18 14:19 36.019173 -114.786126 26 7670ft 244kts
13-May-18 14:20 36.071034 -114.812874 292 6410ft 213kts
13-May-18 14:21 36.074924 -114.877778 265 5470ft 183kts
13-May-18 14:22 36.073518 -114.940565 269 4886ft 180kts
13-May-18 14:23 36.073621 -114.998307 268 4108ft 158kts
13-May-18 14:24 36.073641 -115.049174 268 3295ft 142kts
13-May-18 14:25 36.073752 -115.097458 267 2631ft 144kts
13-May-18 14:26 36.073640 -115.141526 269 2090ft 55kts
13-May-18 14:27 36.074301 -115.144954 297 2101ft 0kts
13-May-18 14:28 36.074301 -115.144954 297 2101ft 0kts
13-May-18 14:29 36.074301 -115.144954 297 2101ft 0kts
13-May-18 14:30 36.074301 -115.144954 297 2101ft 0kts
13-May-18 14:31 36.076621 -115.146554 0 2104ft 18kts
13-May-18 14:32 36.081000 -115.148471 335 2099ft 14kts
13-May-18 14:33 36.082912 -115.149043 50 2098ft 0kts

Navigation Log

Ident Type
Flight plan parsing failed, navigation log unavailable